createdAt,value
2018-09-10T00:02:06.495Z,2.00
2018-09-10T00:04:43.019Z,2.10
2018-09-10T00:07:20.062Z,1.75
2018-09-10T00:09:56.269Z,1.60
2018-09-10T00:12:33.492Z,1.62
2018-09-10T00:15:09.737Z,1.43
2018-09-10T00:17:46.106Z,1.60
2018-09-10T00:20:23.162Z,1.37
2018-09-10T00:22:59.133Z,1.40
2018-09-10T00:25:35.279Z,1.40
2018-09-10T00:28:12.070Z,1.30
2018-09-10T00:30:48.273Z,1.55
2018-09-10T00:33:25.229Z,1.20
2018-09-10T00:36:01.307Z,1.50
2018-09-10T00:38:37.858Z,1.40
2018-09-10T00:41:14.111Z,1.50
2018-09-10T00:43:50.082Z,1.30
2018-09-10T00:46:26.394Z,1.62
2018-09-10T00:49:03.334Z,1.62
2018-09-10T00:51:39.485Z,1.30
2018-09-10T00:54:15.290Z,1.60
2018-09-10T00:56:51.342Z,1.20
2018-09-10T00:59:27.757Z,1.90
2018-09-10T01:02:03.825Z,1.20
2018-09-10T01:04:40.281Z,1.90
2018-09-10T01:07:16.337Z,2.30
2018-09-10T01:11:54.551Z,1.55
2018-09-10T01:14:31.451Z,1.40
2018-09-10T01:17:07.808Z,2.10
2018-09-10T01:19:44.248Z,1.60
2018-09-10T01:22:20.958Z,3.05
2018-09-10T01:24:58.107Z,1.67
2018-09-10T01:27:34.249Z,1.40
2018-09-10T01:30:12.300Z,1.90
2018-09-10T01:32:48.139Z,2.37
2018-09-10T01:35:25.471Z,1.40
2018-09-10T01:38:02.798Z,2.30
2018-09-10T01:40:40.126Z,2.05
2018-09-10T01:43:16.609Z,1.30
2018-09-10T01:45:52.879Z,1.50
2018-09-10T01:48:29.320Z,1.30
2018-09-10T01:51:05.991Z,1.40
2018-09-10T01:53:41.977Z,1.98
2018-09-10T01:56:18.273Z,1.65
2018-09-10T01:58:54.535Z,1.65
2018-09-10T02:01:31.128Z,1.98
2018-09-10T02:04:08.772Z,1.33
2018-09-10T02:06:44.953Z,3.65
2018-09-10T02:09:21.013Z,2.47
2018-09-10T02:11:56.958Z,2.10
2018-09-10T02:14:33.263Z,1.77
2018-09-10T02:17:10.164Z,3.12
2018-09-10T02:19:46.163Z,3.70
2018-09-10T02:22:22.141Z,4.10
2018-09-10T02:24:58.131Z,1.80
2018-09-10T02:27:34.093Z,2.65
2018-09-10T02:30:10.326Z,1.50
2018-09-10T02:32:46.136Z,2.50
2018-09-10T02:35:22.134Z,2.12
2018-09-10T02:37:58.129Z,2.02
2018-09-10T02:40:34.149Z,1.90
2018-09-10T02:43:10.213Z,2.58
2018-09-10T02:45:46.031Z,1.80
2018-09-10T02:48:21.791Z,3.27
2018-09-10T02:50:57.335Z,4.20
2018-09-10T02:53:32.956Z,2.02
2018-09-10T02:56:08.881Z,1.87
2018-09-10T02:58:44.783Z,2.22
2018-09-10T03:01:20.590Z,2.05
2018-09-10T03:03:56.282Z,2.77
2018-09-10T03:06:32.145Z,2.92
2018-09-10T03:09:08.939Z,2.05
2018-09-10T03:11:44.975Z,12.40
2018-09-10T03:14:20.919Z,8.47
2018-09-10T03:16:56.165Z,4.20
2018-09-10T03:19:31.772Z,5.97
2018-09-10T03:22:07.337Z,5.63
2018-09-10T03:24:43.031Z,5.00
2018-09-10T03:27:18.766Z,7.85
2018-09-10T03:29:54.579Z,7.00
2018-09-10T03:32:30.111Z,9.53
2018-09-10T03:35:05.873Z,5.28
2018-09-10T03:37:41.937Z,5.10
2018-09-10T03:40:17.501Z,3.37
2018-09-10T03:42:53.169Z,4.33
2018-09-10T03:45:29.177Z,4.28
2018-09-10T03:48:06.299Z,4.97
2018-09-10T03:50:42.156Z,3.20
2018-09-10T03:53:18.977Z,5.78
2018-09-10T03:55:55.174Z,5.75
2018-09-10T03:58:31.178Z,5.60
2018-09-10T04:01:07.143Z,4.30
2018-09-10T04:03:43.178Z,3.92
2018-09-10T04:06:19.362Z,3.37
2018-09-10T04:08:55.513Z,5.45
2018-09-10T04:11:31.945Z,8.28
2018-09-10T04:14:07.941Z,6.13
2018-09-10T04:16:44.325Z,5.80
2018-09-10T04:19:20.870Z,6.43
2018-09-10T04:21:56.999Z,9.75
2018-09-10T04:24:33.072Z,6.08
2018-09-10T04:27:09.012Z,5.00
2018-09-10T04:29:45.553Z,7.92
2018-09-10T04:32:21.365Z,8.07
2018-09-10T04:34:57.433Z,5.92
2018-09-10T04:37:33.438Z,8.23
2018-09-10T04:40:09.388Z,9.90
2018-09-10T04:42:45.543Z,10.00
2018-09-10T04:45:21.994Z,9.08
2018-09-10T04:47:58.198Z,9.90
2018-09-10T04:50:34.398Z,11.38
2018-09-10T04:53:10.381Z,11.40
2018-09-10T04:55:46.477Z,12.10
2018-09-10T04:58:22.917Z,10.77
2018-09-10T05:00:59.562Z,16.02
2018-09-10T05:03:36.361Z,14.87
2018-09-10T05:06:12.159Z,33.40
2018-09-10T05:08:48.357Z,39.90
2018-09-10T05:11:24.385Z,42.30
2018-09-10T05:14:00.569Z,46.80
2018-09-10T05:16:36.964Z,54.10
2018-09-10T05:19:13.997Z,63.50
2018-09-10T05:21:50.353Z,63.38
2018-09-10T05:24:26.564Z,71.50
2018-09-10T05:27:03.008Z,71.30
2018-09-10T05:29:39.062Z,88.13
2018-09-10T05:32:15.002Z,89.07
2018-09-10T05:34:51.215Z,106.20
2018-09-10T05:37:27.429Z,103.45
2018-09-10T05:40:04.340Z,106.07
2018-09-10T05:42:40.451Z,106.60
2018-09-10T05:45:17.582Z,106.92
2018-09-10T05:47:54.555Z,111.00
2018-09-10T05:50:31.134Z,107.20
2018-09-10T05:53:08.439Z,119.82
2018-09-10T05:55:45.015Z,113.72
2018-09-10T05:58:21.937Z,110.72
2018-09-10T06:00:58.638Z,115.92
2018-09-10T06:03:34.639Z,120.23
2018-09-10T06:06:11.294Z,120.07
2018-09-10T06:08:47.675Z,129.35
2018-09-10T06:11:24.180Z,87.17
2018-09-10T06:14:00.580Z,58.33
2018-09-10T06:16:37.970Z,46.73
2018-09-10T06:19:14.579Z,50.98
2018-09-10T06:21:51.009Z,38.00
2018-09-10T06:24:27.460Z,61.73
2018-09-10T06:27:03.621Z,61.17
2018-09-10T06:29:40.246Z,64.27
2018-09-10T06:32:16.657Z,62.25
2018-09-10T06:34:52.925Z,61.53
2018-09-10T06:37:29.266Z,64.97
2018-09-10T06:40:05.529Z,68.10
2018-09-10T06:42:42.377Z,67.42
2018-09-10T06:45:18.773Z,82.90
2018-09-10T06:47:55.462Z,95.70
2018-09-10T06:50:31.579Z,102.90
2018-09-10T06:53:07.948Z,106.53
2018-09-10T06:55:44.476Z,106.95
2018-09-10T06:58:20.526Z,94.43
2018-09-10T07:00:56.953Z,117.35
2018-09-10T07:03:33.050Z,122.92
2018-09-10T07:06:09.433Z,132.87
2018-09-10T07:08:45.661Z,130.00
2018-09-10T07:11:22.244Z,85.55
2018-09-10T07:13:59.248Z,63.30
2018-09-10T07:16:35.435Z,58.20
2018-09-10T07:19:11.298Z,53.75
2018-09-10T07:21:47.260Z,62.20
2018-09-10T07:24:23.429Z,54.03
2018-09-10T07:26:59.607Z,57.35
2018-09-10T07:29:36.257Z,54.48
2018-09-10T07:32:12.581Z,66.45
2018-09-10T07:34:48.814Z,52.03
2018-09-10T07:37:25.171Z,51.80
2018-09-10T07:40:01.232Z,74.82
2018-09-10T07:42:37.265Z,77.40
2018-09-10T07:45:13.503Z,73.40
2018-09-10T07:47:49.864Z,69.23
2018-09-10T07:50:26.262Z,68.95
2018-09-10T07:53:02.266Z,59.03
2018-09-10T07:55:38.418Z,62.37
2018-09-10T07:58:14.690Z,70.42
2018-09-10T08:00:51.054Z,64.17
2018-09-10T08:03:27.439Z,70.30
2018-09-10T08:08:37.466Z,64.83
2018-09-10T08:11:14.027Z,64.15
2018-09-10T08:13:50.271Z,59.67
2018-09-10T08:16:27.083Z,61.88
2018-09-10T08:19:02.951Z,69.15
2018-09-10T08:21:39.096Z,68.77
2018-09-10T08:24:15.268Z,62.15
2018-09-10T08:26:52.243Z,78.93
2018-09-10T08:29:28.182Z,73.67
2018-09-10T08:32:04.476Z,66.53
2018-09-10T08:34:41.453Z,74.60
2018-09-10T08:37:17.281Z,65.60
2018-09-10T08:39:53.184Z,70.72
2018-09-10T08:42:29.476Z,84.20
2018-09-10T08:45:05.616Z,70.13
2018-09-10T08:47:41.986Z,70.30
2018-09-10T08:50:18.319Z,73.40
2018-09-10T08:52:54.221Z,76.70
2018-09-10T08:55:30.299Z,74.55
2018-09-10T08:58:06.666Z,83.33
2018-09-10T09:00:42.693Z,76.15
2018-09-10T09:03:18.494Z,74.25
2018-09-10T09:05:54.514Z,92.30
2018-09-10T09:08:30.693Z,87.30
2018-09-10T09:11:07.109Z,92.05
2018-09-10T09:13:43.297Z,89.50
2018-09-10T09:16:19.436Z,85.55
2018-09-10T09:18:55.418Z,84.10
2018-09-10T09:21:31.423Z,90.23
2018-09-10T09:24:07.329Z,83.50
2018-09-10T09:26:43.419Z,78.50
2018-09-10T09:29:20.198Z,74.90
2018-09-10T09:31:56.285Z,76.53
2018-09-10T09:34:36.445Z,80.03
2018-09-10T09:37:16.629Z,85.20
2018-09-10T09:39:56.638Z,80.10
2018-09-10T09:42:36.641Z,78.85
2018-09-10T09:45:16.478Z,83.80
2018-09-10T09:47:52.321Z,80.27
2018-09-10T09:50:28.478Z,84.40
2018-09-10T09:53:04.481Z,79.50
2018-09-10T09:55:40.484Z,84.50
2018-09-10T09:58:16.686Z,88.30
2018-09-10T10:00:56.958Z,72.62
2018-09-10T10:03:37.209Z,79.17
2018-09-10T10:06:13.313Z,74.10
2018-09-10T10:08:49.645Z,79.55
2018-09-10T10:11:26.066Z,75.47
2018-09-10T10:14:02.281Z,81.22
2018-09-10T10:16:38.657Z,87.92
2018-09-10T10:19:14.317Z,76.17
2018-09-10T10:21:50.521Z,80.22
2018-09-10T10:24:26.553Z,69.42
2018-09-10T10:27:02.693Z,76.05
2018-09-10T10:29:38.945Z,68.10
2018-09-10T10:32:15.095Z,70.30
2018-09-10T10:34:51.501Z,65.57
2018-09-10T10:37:27.533Z,80.17
2018-09-10T10:40:03.665Z,67.20
2018-09-10T10:42:39.690Z,77.05
2018-09-10T10:45:16.118Z,75.35
2018-09-10T10:47:52.330Z,82.20
2018-09-10T10:50:28.505Z,70.70
2018-09-10T10:53:05.352Z,65.80
2018-09-10T10:55:41.604Z,72.90
2018-09-10T10:58:17.816Z,72.87
2018-09-10T11:00:54.221Z,71.60
2018-09-10T11:03:30.521Z,68.70
2018-09-10T11:06:06.685Z,77.00
2018-09-10T11:08:43.246Z,81.47
2018-09-10T11:11:19.242Z,66.50
2018-09-10T11:13:55.341Z,70.22
2018-09-10T11:16:31.737Z,70.70
2018-09-10T11:19:08.281Z,64.77
2018-09-10T11:21:44.360Z,61.88
2018-09-10T11:24:20.549Z,63.38
2018-09-10T11:26:57.002Z,62.73
2018-09-10T11:29:33.517Z,65.25
2018-09-10T11:32:10.077Z,62.53
2018-09-10T11:34:46.336Z,56.28
2018-09-10T11:37:23.524Z,69.32
2018-09-10T11:39:59.626Z,62.47
2018-09-10T11:42:35.826Z,60.45
2018-09-10T11:45:12.265Z,62.53
2018-09-10T11:47:48.565Z,59.25
2018-09-10T11:50:24.553Z,51.25
2018-09-10T11:53:00.750Z,65.20
2018-09-10T11:55:36.819Z,49.77
2018-09-10T11:58:13.923Z,52.73
2018-09-10T12:00:50.250Z,55.60
2018-09-10T12:03:26.566Z,65.40
2018-09-10T12:06:03.248Z,58.63
2018-09-10T12:08:39.533Z,52.62
2018-09-10T12:11:15.694Z,60.17
2018-09-10T12:13:52.599Z,56.60
2018-09-10T12:16:29.001Z,50.92
2018-09-10T12:19:06.383Z,50.87
2018-09-10T12:21:42.381Z,48.00
2018-09-10T12:24:18.510Z,55.57
2018-09-10T12:26:55.258Z,47.40
2018-09-10T12:29:32.172Z,43.45
2018-09-10T12:32:08.342Z,51.98
2018-09-10T12:34:44.118Z,46.27
2018-09-10T12:37:20.487Z,47.33
2018-09-10T12:39:56.374Z,44.50
2018-09-10T12:42:32.546Z,42.77
2018-09-10T12:45:09.136Z,41.90
2018-09-10T12:47:45.194Z,44.95
2018-09-10T12:50:21.744Z,36.73
2018-09-10T12:52:57.781Z,36.43
2018-09-10T12:55:34.554Z,34.35
2018-09-10T12:58:10.541Z,36.00
2018-09-10T13:00:46.553Z,37.20
2018-09-10T13:03:22.753Z,36.70
2018-09-10T13:05:59.070Z,38.02
2018-09-10T13:08:35.460Z,31.35
2018-09-10T13:11:11.653Z,28.10
2018-09-10T13:13:47.661Z,29.40
2018-09-10T13:16:24.388Z,27.70
2018-09-10T13:19:00.826Z,26.97
2018-09-10T13:21:37.309Z,25.77
2018-09-10T13:24:14.502Z,21.77
2018-09-10T13:26:51.054Z,20.77
2018-09-10T13:29:27.557Z,21.60
2018-09-10T13:32:03.609Z,17.87
2018-09-10T13:34:39.575Z,21.87
2018-09-10T13:37:15.831Z,16.40
2018-09-10T13:39:52.389Z,19.75
2018-09-10T13:42:28.563Z,20.70
2018-09-10T13:45:04.604Z,16.30
2018-09-10T13:47:41.284Z,16.12
2018-09-10T13:50:17.468Z,16.82
2018-09-10T13:52:54.610Z,12.40
2018-09-10T13:55:30.767Z,13.30
2018-09-10T13:58:07.393Z,12.43
2018-09-10T14:00:43.727Z,16.90
2018-09-10T14:03:19.993Z,15.88
2018-09-10T14:05:56.299Z,11.28
2018-09-10T14:08:32.573Z,11.75
2018-09-10T14:11:08.799Z,8.10
2018-09-10T14:13:45.246Z,9.83
2018-09-10T14:16:21.593Z,12.80
2018-09-10T14:18:58.808Z,10.43
2018-09-10T14:21:35.062Z,9.30
2018-09-10T14:24:11.408Z,12.18
2018-09-10T14:26:47.577Z,9.53
2018-09-10T14:29:23.450Z,8.05
2018-09-10T14:31:59.690Z,12.87
2018-09-10T14:34:36.425Z,12.67
2018-09-10T14:37:13.852Z,9.40
2018-09-10T14:39:50.674Z,10.32
2018-09-10T14:42:27.065Z,7.47
2018-09-10T14:45:04.005Z,9.83
2018-09-10T14:47:40.390Z,8.30
2018-09-10T14:50:16.608Z,16.07
2018-09-10T14:52:52.803Z,10.33
2018-09-10T14:55:29.128Z,10.70
2018-09-10T14:58:05.414Z,10.67
2018-09-10T15:00:41.450Z,10.60
2018-09-10T15:03:17.490Z,12.65
2018-09-10T15:05:53.506Z,9.70
2018-09-10T15:08:29.421Z,10.70
2018-09-10T15:11:05.416Z,9.53
2018-09-10T15:13:42.170Z,13.20
2018-09-10T15:16:18.360Z,11.75
2018-09-10T15:18:54.459Z,11.80
2018-09-10T15:21:30.401Z,9.10
2018-09-10T15:24:06.425Z,10.65
2018-09-10T15:26:42.418Z,7.65
2018-09-10T15:29:18.424Z,9.23
2018-09-10T15:31:55.334Z,7.97
2018-09-10T15:34:31.543Z,12.25
2018-09-10T15:37:07.602Z,10.80
2018-09-10T15:39:44.120Z,8.73
2018-09-10T15:42:20.447Z,11.88
2018-09-10T15:44:56.429Z,11.30
2018-09-10T15:50:18.398Z,11.22
2018-09-10T15:52:54.411Z,8.78
2018-09-10T15:55:30.611Z,10.48
2018-09-10T15:58:06.919Z,10.15
2018-09-10T16:00:43.345Z,9.10
2018-09-10T16:03:19.649Z,9.40
2018-09-10T16:05:55.773Z,9.63
2018-09-10T16:08:32.348Z,10.43
2018-09-10T16:11:08.626Z,9.00
2018-09-10T16:13:44.638Z,11.00
2018-09-10T16:16:20.616Z,7.97
2018-09-10T16:18:56.782Z,8.80
2018-09-10T16:21:32.806Z,9.85
2018-09-10T16:24:09.194Z,9.80
2018-09-10T16:26:45.621Z,9.00
2018-09-10T16:29:21.617Z,10.77
2018-09-10T16:31:57.635Z,10.50
2018-09-10T16:34:34.262Z,10.27
2018-09-10T16:38:37.450Z,4.90
2018-09-10T16:41:13.660Z,6.03
2018-09-10T16:43:49.782Z,4.77
2018-09-10T16:46:25.430Z,5.55
2018-09-10T16:49:00.784Z,2.50
2018-09-10T16:51:36.429Z,3.60
2018-09-10T16:54:11.928Z,2.85
2018-09-10T16:56:47.681Z,3.30
2018-09-10T16:59:23.183Z,3.70
2018-09-10T17:01:59.112Z,4.60
2018-09-10T17:04:34.881Z,3.58
2018-09-10T17:07:10.433Z,5.13
2018-09-10T17:09:46.336Z,3.92
2018-09-10T17:12:22.355Z,3.98
2018-09-10T17:14:58.204Z,4.00
2018-09-10T17:17:34.089Z,3.72
2018-09-10T17:20:09.676Z,3.80
2018-09-10T17:22:45.314Z,5.50
2018-09-10T17:25:21.135Z,3.70
2018-09-10T17:27:56.634Z,3.33
2018-09-10T17:30:32.458Z,3.58
2018-09-10T17:33:08.025Z,2.97
2018-09-10T17:35:44.630Z,4.73
2018-09-10T17:38:48.456Z,3.90
2018-09-10T17:41:25.018Z,5.40
2018-09-10T17:44:00.654Z,4.25
2018-09-10T17:46:36.246Z,5.63
2018-09-10T17:49:13.662Z,5.83
2018-09-10T17:51:49.649Z,6.40
2018-09-10T17:54:26.342Z,4.85
2018-09-10T17:57:02.365Z,6.25
2018-09-10T17:59:37.850Z,5.25
2018-09-10T18:02:14.694Z,5.65
2018-09-10T18:04:50.456Z,5.95
2018-09-10T18:07:26.186Z,4.50
2018-09-10T18:10:01.809Z,4.35
2018-09-10T18:12:37.604Z,4.45
2018-09-10T18:15:13.266Z,5.23
2018-09-10T18:17:49.460Z,4.97
2018-09-10T18:20:25.485Z,2.62
2018-09-10T18:23:01.442Z,3.00
2018-09-10T18:25:37.042Z,3.90
2018-09-10T18:28:12.817Z,3.05
2018-09-10T18:30:48.658Z,4.10
2018-09-10T18:33:24.246Z,3.67
2018-09-10T18:36:00.190Z,3.83
2018-09-10T18:38:35.975Z,2.67
2018-09-10T18:41:11.473Z,2.43
2018-09-10T18:43:47.131Z,2.80
2018-09-10T18:46:23.458Z,3.35
2018-09-10T18:48:59.137Z,3.57
2018-09-10T18:51:34.666Z,2.52
2018-09-10T18:54:10.462Z,2.57
2018-09-10T18:56:46.298Z,5.65
2018-09-10T18:59:22.291Z,2.77
2018-09-10T19:01:58.679Z,2.77
2018-09-10T19:04:34.398Z,3.52
2018-09-10T19:07:11.534Z,3.33
2018-09-10T19:09:47.257Z,2.80
2018-09-10T19:12:22.724Z,3.10
2018-09-10T19:14:58.496Z,2.90
2018-09-10T19:17:34.296Z,4.30
2018-09-10T19:20:09.726Z,2.87
2018-09-10T19:22:45.311Z,3.93
2018-09-10T19:25:21.181Z,4.08
2018-09-10T19:27:56.503Z,3.55
2018-09-10T19:30:32.204Z,3.37
2018-09-10T19:33:08.125Z,3.27
2018-09-10T19:35:43.901Z,2.37
2018-09-10T19:38:19.454Z,3.33
2018-09-10T19:40:55.313Z,3.35
2018-09-10T19:43:30.720Z,3.05
2018-09-10T19:46:06.426Z,3.03
2018-09-10T19:48:42.294Z,2.58
2018-09-10T19:51:18.270Z,2.77
2018-09-10T19:53:53.715Z,3.70
2018-09-10T19:56:29.185Z,2.50
2018-09-10T19:59:05.287Z,3.00
2018-09-10T20:01:40.861Z,2.93
2018-09-10T20:04:16.410Z,2.87
2018-09-10T20:06:52.313Z,2.22
2018-09-10T20:09:28.159Z,2.20
2018-09-10T20:12:03.693Z,3.77
2018-09-10T20:14:39.181Z,2.00
2018-09-10T20:17:14.525Z,2.58
2018-09-10T20:19:50.361Z,1.87
2018-09-10T20:22:25.910Z,2.92
2018-09-10T20:25:01.494Z,2.37
2018-09-10T20:27:37.525Z,2.27
2018-09-10T20:30:12.951Z,2.07
2018-09-10T20:32:48.779Z,1.60
2018-09-10T20:35:24.450Z,2.17
2018-09-10T20:38:00.281Z,2.15
2018-09-10T20:40:36.017Z,1.80
2018-09-10T20:43:11.711Z,1.83
2018-09-10T20:45:47.583Z,2.12
2018-09-10T20:48:23.533Z,2.27
2018-09-10T20:50:59.186Z,2.15
2018-09-10T20:53:34.988Z,2.35
2018-09-10T20:56:10.873Z,2.00
2018-09-10T20:58:47.008Z,1.70
2018-09-10T21:01:22.710Z,1.87
2018-09-10T21:03:58.513Z,2.00
2018-09-10T21:06:34.553Z,1.62
2018-09-10T21:09:12.782Z,2.02
2018-09-10T21:11:48.483Z,2.93
2018-09-10T21:14:24.305Z,1.87
2018-09-10T21:17:00.038Z,2.73
2018-09-10T21:19:35.818Z,2.15
2018-09-10T21:22:11.286Z,1.80
2018-09-10T21:24:47.001Z,2.00
2018-09-10T21:27:22.769Z,1.60
2018-09-10T21:29:58.545Z,2.50
2018-09-10T21:32:34.182Z,5.08
2018-09-10T21:35:09.724Z,3.30
2018-09-10T21:37:45.388Z,1.98
2018-09-10T21:40:21.298Z,2.40
2018-09-10T21:42:57.268Z,1.83
2018-09-10T21:45:33.305Z,1.92
2018-09-10T21:48:09.299Z,1.65
2018-09-10T21:50:45.339Z,2.05
2018-09-10T21:53:21.276Z,1.60
2018-09-10T21:55:56.981Z,2.47
2018-09-10T21:58:32.731Z,2.17
2018-09-10T22:01:08.392Z,2.60
2018-09-10T22:03:44.449Z,2.35
2018-09-10T22:06:20.890Z,2.17
2018-09-10T22:08:56.557Z,1.95
2018-09-10T22:11:32.320Z,1.60
2018-09-10T22:14:08.139Z,1.75
2018-09-10T22:16:43.767Z,2.20
2018-09-10T22:19:19.465Z,1.75
2018-09-10T22:21:55.462Z,2.40
2018-09-10T22:24:30.819Z,1.93
2018-09-10T22:27:06.332Z,3.43
2018-09-10T22:29:42.258Z,2.37
2018-09-10T22:32:17.938Z,2.02
2018-09-10T22:34:53.849Z,1.55
2018-09-10T22:37:29.348Z,2.53
2018-09-10T22:40:05.282Z,2.03
2018-09-10T22:42:41.003Z,2.03
2018-09-10T22:45:16.784Z,2.02
2018-09-10T22:47:52.694Z,2.27
2018-09-10T22:50:28.454Z,1.80
2018-09-10T22:53:04.458Z,1.75
2018-09-10T22:55:40.398Z,1.52
2018-09-10T22:58:15.915Z,1.30
2018-09-10T23:00:52.252Z,2.20
2018-09-10T23:03:29.260Z,1.50
2018-09-10T23:06:05.258Z,1.40
2018-09-10T23:08:41.031Z,1.70
2018-09-10T23:11:17.007Z,1.72
2018-09-10T23:13:53.677Z,1.52
2018-09-10T23:16:29.306Z,2.20
2018-09-10T23:19:05.381Z,1.67
2018-09-10T23:21:41.129Z,1.25
2018-09-10T23:24:16.990Z,1.70
2018-09-10T23:26:52.578Z,1.57
2018-09-10T23:29:28.410Z,1.95
2018-09-10T23:32:04.394Z,1.13
2018-09-10T23:34:40.761Z,1.53
2018-09-10T23:37:19.050Z,1.90
2018-09-10T23:39:54.923Z,1.75
2018-09-10T23:42:30.601Z,1.70
2018-09-10T23:45:06.450Z,1.10
2018-09-10T23:47:41.937Z,1.70
2018-09-10T23:50:17.765Z,1.50
2018-09-10T23:52:53.357Z,1.20
2018-09-10T23:55:30.585Z,1.37
2018-09-10T23:58:06.487Z,1.92
